Wan Hai 282 — 9VJM6 — position and weather

sailwx.info

Track history (hours):
 
Tides and Currents Weather Stations Pressure Air Temp Water Temp Dewpoint Dewpoint Depression Visibility Wind Speed Wind Dir Waves Ship Positions

Wan Hai 282

Last reported at 2017-Sep-19 16:31 UTC. Time now 2017-Sep-22 22:34 UTC.
Position N 22°24' E 118°19'.

Length 182 m; draft 8.3 m.

Type: Ship. MMSI: 565647000.

Date/timePositionNaut miles runAvg speedWind from/ knotsBaromVisibWave heightAir tempDewpointWater temp
2017-Sep-19 16:31N 22°24' E 118°19'2215.2
2017-Sep-19 15:03N 22°27' E 118°43'1716.1
2017-Sep-19 13:59N 22°28' E 119°02'916.5
2017-Sep-19 13:26N 22°29' E 119°11'3815.7
2017-Sep-19 10:59N 22°33' E 119°53'816.0
2017-Sep-19 10:30N 22°35' E 120°01'815.6
2017-Sep-19 10:01N 22°37' E 120°09'612.2
2017-Sep-19 09:30N 22°37' E 120°15'3 6.9
2017-Sep-19 09:01N 22°35' E 120°18'0 0.5
2017-Sep-19 08:30N 22°35' E 120°18'0 0.0
2017-Sep-19 08:00N 22°35' E 120°18'0 0.0
2017-Sep-19 07:30N 22°35' E 120°18'0 0.0
2017-Sep-19 07:00N 22°35' E 120°18'0 0.0
2017-Sep-19 06:30N 22°35' E 120°18'0 0.0
2017-Sep-19 05:54N 22°35' E 120°18'0 0.0
2017-Sep-19 05:30N 22°35' E 120°18'0 0.0
2017-Sep-19 05:00N 22°35' E 120°18'0 0.0
2017-Sep-19 04:30N 22°35' E 120°18'0 0.0
2017-Sep-19 04:00N 22°35' E 120°18'0 0.0
2017-Sep-19 03:30N 22°35' E 120°18'0 0.0
2017-Sep-19 02:42N 22°35' E 120°18'0 0.1
2017-Sep-19 02:30N 22°35' E 120°18'0 0.0
2017-Sep-19 02:00N 22°35' E 120°18'0 0.0
2017-Sep-19 01:30N 22°35' E 120°18'0 0.0
2017-Sep-19 01:00N 22°35' E 120°18'1 1.7
2017-Sep-19 00:30N 22°35' E 120°18'4 8.1
2017-Sep-19 00:00N 22°37' E 120°14'2 4.8
2017-Sep-18 23:30N 22°37' E 120°11'3 5.9
2017-Sep-18 23:00N 22°38' E 120°08'0 0.8
2017-Sep-18 22:30N 22°38' E 120°09'1 2.0
2017-Sep-18 22:00N 22°39' E 120°09'3 6.8
2017-Sep-18 21:30N 22°42' E 120°08'510.8
2017-Sep-18 21:00N 22°47' E 120°06'92 9.6
2017-Sep-18 11:25N 24°16' E 120°31'0 0.0
2017-Sep-18 10:56N 24°16' E 120°31'0 0.0
2017-Sep-18 10:19N 24°16' E 120°31'0 0.0
2017-Sep-18 09:55N 24°16' E 120°31'0 0.0
2017-Sep-18 08:49N 24°16' E 120°31'  
2017-Sep-10 14:52N 34°35' E 134°52'1315.0
2017-Sep-10 14:00N 34°36' E 135°08'5 9.2
2017-Sep-10 13:30N 34°37' E 135°13'4 8.0
2017-Sep-10 13:00N 34°40' E 135°15'1 1.2
2017-Sep-10 12:28N 34°41' E 135°15'0 0.0
2017-Sep-10 11:58N 34°41' E 135°15'0 0.0
2017-Sep-10 11:28N 34°41' E 135°15'0 0.0
2017-Sep-10 10:58N 34°41' E 135°15'0 0.0
2017-Sep-10 10:28N 34°41' E 135°15'0 0.0
2017-Sep-10 09:58N 34°41' E 135°15'0 0.0
2017-Sep-10 09:28N 34°41' E 135°15'0 0.0
2017-Sep-10 08:58N 34°41' E 135°15'0 0.0
2017-Sep-10 08:28N 34°41' E 135°15'0 0.0
2017-Sep-10 07:58N 34°41' E 135°15'0 0.0
2017-Sep-10 07:28N 34°41' E 135°15'0 0.0
2017-Sep-10 06:58N 34°41' E 135°15'0 0.3
2017-Sep-10 06:30N 34°41' E 135°15'3 6.9
2017-Sep-10 06:00N 34°38' E 135°17'611.3
2017-Sep-10 05:30N 34°38' E 135°24'1 2.7
2017-Sep-10 05:00N 34°39' E 135°26'0 0.0
2017-Sep-10 04:30N 34°39' E 135°26'0 0.0
2017-Sep-10 03:54N 34°39' E 135°26'0 0.0
2017-Sep-10 03:30N 34°39' E 135°26'0 0.0
2017-Sep-10 02:54N 34°39' E 135°26'0 0.0
2017-Sep-10 02:18N 34°39' E 135°26'0 0.0
2017-Sep-10 01:54N 34°39' E 135°26'0 0.0
2017-Sep-10 01:24N 34°39' E 135°26'0 0.0
2017-Sep-10 00:54N 34°39' E 135°26'0 0.0
2017-Sep-10 00:24N 34°39' E 135°26'0 0.0
2017-Sep-09 23:48N 34°39' E 135°26'0 0.0
2017-Sep-09 23:30N 34°39' E 135°26'0 0.0
2017-Sep-09 23:00N 34°39' E 135°26'0 0.0
2017-Sep-09 22:30N 34°39' E 135°26'0 0.0
2017-Sep-09 21:42N 34°39' E 135°26'0 0.0
2017-Sep-09 21:30N 34°39' E 135°26'0 0.0
2017-Sep-09 20:42N 34°39' E 135°26'0 0.0
2017-Sep-09 20:30N 34°39' E 135°26'0 0.0
2017-Sep-09 20:00N 34°39' E 135°26'0 0.0
2017-Sep-09 19:30N 34°39' E 135°26'0 0.0
2017-Sep-09 19:00N 34°39' E 135°26'0 0.0
2017-Sep-09 18:30N 34°39' E 135°26'0 0.0
2017-Sep-09 18:00N 34°39' E 135°26'0 0.0
2017-Sep-09 17:30N 34°39' E 135°26'0 0.0
2017-Sep-09 17:00N 34°39' E 135°26'  
Track history (hours):
 
Tides and Currents Weather Stations Pressure Air Temp Water Temp Dewpoint Dewpoint Depression Visibility Wind Speed Wind Dir Waves Ship Positions

Wan Hai 282

Last reported at 2017-Sep-19 16:31 UTC. Time now 2017-Sep-22 22:34 UTC.
Position N 22°24' E 118°19'.

Length 182 m; draft 8.3 m.

Type: Ship. MMSI: 565647000.

Date/timePositionNaut miles runAvg speedWind from/ knotsBaromVisibWave heightAir tempDewpointWater temp
2017-Sep-19 16:31N 22°24' E 118°19'2215.2
2017-Sep-19 15:03N 22°27' E 118°43'1716.1
2017-Sep-19 13:59N 22°28' E 119°02'916.5
2017-Sep-19 13:26N 22°29' E 119°11'3815.7
2017-Sep-19 10:59N 22°33' E 119°53'816.0
2017-Sep-19 10:30N 22°35' E 120°01'815.6
2017-Sep-19 10:01N 22°37' E 120°09'612.2
2017-Sep-19 09:30N 22°37' E 120°15'3 6.9
2017-Sep-19 09:01N 22°35' E 120°18'0 0.5
2017-Sep-19 08:30N 22°35' E 120°18'0 0.0
2017-Sep-19 08:00N 22°35' E 120°18'0 0.0
2017-Sep-19 07:30N 22°35' E 120°18'0 0.0
2017-Sep-19 07:00N 22°35' E 120°18'0 0.0
2017-Sep-19 06:30N 22°35' E 120°18'0 0.0
2017-Sep-19 05:54N 22°35' E 120°18'0 0.0
2017-Sep-19 05:30N 22°35' E 120°18'0 0.0
2017-Sep-19 05:00N 22°35' E 120°18'0 0.0
2017-Sep-19 04:30N 22°35' E 120°18'0 0.0
2017-Sep-19 04:00N 22°35' E 120°18'0 0.0
2017-Sep-19 03:30N 22°35' E 120°18'0 0.0
2017-Sep-19 02:42N 22°35' E 120°18'0 0.1
2017-Sep-19 02:30N 22°35' E 120°18'0 0.0
2017-Sep-19 02:00N 22°35' E 120°18'0 0.0
2017-Sep-19 01:30N 22°35' E 120°18'0 0.0
2017-Sep-19 01:00N 22°35' E 120°18'1 1.7
2017-Sep-19 00:30N 22°35' E 120°18'4 8.1
2017-Sep-19 00:00N 22°37' E 120°14'2 4.8
2017-Sep-18 23:30N 22°37' E 120°11'3 5.9
2017-Sep-18 23:00N 22°38' E 120°08'0 0.8
2017-Sep-18 22:30N 22°38' E 120°09'1 2.0
2017-Sep-18 22:00N 22°39' E 120°09'3 6.8
2017-Sep-18 21:30N 22°42' E 120°08'510.8
2017-Sep-18 21:00N 22°47' E 120°06'92 9.6
2017-Sep-18 11:25N 24°16' E 120°31'0 0.0
2017-Sep-18 10:56N 24°16' E 120°31'0 0.0
2017-Sep-18 10:19N 24°16' E 120°31'0 0.0
2017-Sep-18 09:55N 24°16' E 120°31'0 0.0
2017-Sep-18 08:49N 24°16' E 120°31'  
2017-Sep-10 14:52N 34°35' E 134°52'1315.0
2017-Sep-10 14:00N 34°36' E 135°08'5 9.2
2017-Sep-10 13:30N 34°37' E 135°13'4 8.0
2017-Sep-10 13:00N 34°40' E 135°15'1 1.2
2017-Sep-10 12:28N 34°41' E 135°15'0 0.0
2017-Sep-10 11:58N 34°41' E 135°15'0 0.0
2017-Sep-10 11:28N 34°41' E 135°15'0 0.0
2017-Sep-10 10:58N 34°41' E 135°15'0 0.0
2017-Sep-10 10:28N 34°41' E 135°15'0 0.0
2017-Sep-10 09:58N 34°41' E 135°15'0 0.0
2017-Sep-10 09:28N 34°41' E 135°15'0 0.0
2017-Sep-10 08:58N 34°41' E 135°15'0 0.0
2017-Sep-10 08:28N 34°41' E 135°15'0 0.0
2017-Sep-10 07:58N 34°41' E 135°15'0 0.0
2017-Sep-10 07:28N 34°41' E 135°15'0 0.0
2017-Sep-10 06:58N 34°41' E 135°15'0 0.3
2017-Sep-10 06:30N 34°41' E 135°15'3 6.9
2017-Sep-10 06:00N 34°38' E 135°17'611.3
2017-Sep-10 05:30N 34°38' E 135°24'1 2.7
2017-Sep-10 05:00N 34°39' E 135°26'0 0.0
2017-Sep-10 04:30N 34°39' E 135°26'0 0.0
2017-Sep-10 03:54N 34°39' E 135°26'0 0.0
2017-Sep-10 03:30N 34°39' E 135°26'0 0.0
2017-Sep-10 02:54N 34°39' E 135°26'0 0.0
2017-Sep-10 02:18N 34°39' E 135°26'0 0.0
2017-Sep-10 01:54N 34°39' E 135°26'0 0.0
2017-Sep-10 01:24N 34°39' E 135°26'0 0.0
2017-Sep-10 00:54N 34°39' E 135°26'0 0.0
2017-Sep-10 00:24N 34°39' E 135°26'0 0.0
2017-Sep-09 23:48N 34°39' E 135°26'0 0.0
2017-Sep-09 23:30N 34°39' E 135°26'0 0.0
2017-Sep-09 23:00N 34°39' E 135°26'0 0.0
2017-Sep-09 22:30N 34°39' E 135°26'0 0.0
2017-Sep-09 21:42N 34°39' E 135°26'0 0.0
2017-Sep-09 21:30N 34°39' E 135°26'0 0.0
2017-Sep-09 20:42N 34°39' E 135°26'0 0.0
2017-Sep-09 20:30N 34°39' E 135°26'0 0.0
2017-Sep-09 20:00N 34°39' E 135°26'0 0.0
2017-Sep-09 19:30N 34°39' E 135°26'0 0.0
2017-Sep-09 19:00N 34°39' E 135°26'0 0.0
2017-Sep-09 18:30N 34°39' E 135°26'0 0.0
2017-Sep-09 18:00N 34°39' E 135°26'0 0.0
2017-Sep-09 17:30N 34°39' E 135°26'0 0.0
2017-Sep-09 17:00N 34°39' E 135°26'  

Dump ship's entire track history